sensor_id;sensor_type;location;lat;lon;timestamp;temperature;humidity
40253;DHT22;25972;51.854;4.534;2024-02-04T00:01:40;10.00;99.90
40253;DHT22;25972;51.854;4.534;2024-02-04T00:04:06;10.10;99.90
40253;DHT22;25972;51.854;4.534;2024-02-04T00:06:32;10.10;99.90
40253;DHT22;25972;51.854;4.534;2024-02-04T00:08:58;10.10;99.90
40253;DHT22;25972;51.854;4.534;2024-02-04T00:11:24;10.10;99.90
40253;DHT22;25972;51.854;4.534;2024-02-04T00:13:49;10.10;99.90
40253;DHT22;25972;51.854;4.534;2024-02-04T00:16:15;10.10;99.90
40253;DHT22;25972;51.854;4.534;2024-02-04T00:18:41;10.10;99.90
40253;DHT22;25972;51.854;4.534;2024-02-04T00:21:07;10.10;99.90
40253;DHT22;25972;51.854;4.534;2024-02-04T00:23:33;10.10;99.90
40253;DHT22;25972;51.854;4.534;2024-02-04T00:25:58;10.20;99.90
40253;DHT22;25972;51.854;4.534;2024-02-04T00:28:24;10.20;99.90
40253;DHT22;25972;51.854;4.534;2024-02-04T00:30:51;10.20;99.90
40253;DHT22;25972;51.854;4.534;2024-02-04T00:33:21;10.20;99.90
40253;DHT22;25972;51.854;4.534;2024-02-04T00:35:46;10.20;99.90
40253;DHT22;25972;51.854;4.534;2024-02-04T00:38:12;10.30;99.90
40253;DHT22;25972;51.854;4.534;2024-02-04T00:40:38;10.30;99.90
40253;DHT22;25972;51.854;4.534;2024-02-04T00:43:04;10.30;99.90
40253;DHT22;25972;51.854;4.534;2024-02-04T00:45:29;10.30;99.90
40253;DHT22;25972;51.854;4.534;2024-02-04T00:47:55;10.30;99.90
40253;DHT22;25972;51.854;4.534;2024-02-04T00:50:21;10.30;99.90
40253;DHT22;25972;51.854;4.534;2024-02-04T00:52:46;10.20;99.90
40253;DHT22;25972;51.854;4.534;2024-02-04T00:55:12;10.20;99.90
40253;DHT22;25972;51.854;4.534;2024-02-04T00:57:38;10.20;99.90
40253;DHT22;25972;51.854;4.534;2024-02-04T01:00:04;10.20;99.90
40253;DHT22;25972;51.854;4.534;2024-02-04T01:02:30;10.20;99.90
40253;DHT22;25972;51.854;4.534;2024-02-04T01:04:56;10.10;99.90
40253;DHT22;25972;51.854;4.534;2024-02-04T01:07:24;10.10;99.90
40253;DHT22;25972;51.854;4.534;2024-02-04T01:09:50;10.10;99.90
40253;DHT22;25972;51.854;4.534;2024-02-04T01:12:16;10.10;99.90
40253;DHT22;25972;51.854;4.534;2024-02-04T01:14:42;10.10;99.90
40253;DHT22;25972;51.854;4.534;2024-02-04T01:17:10;10.10;99.90
40253;DHT22;25972;51.854;4.534;2024-02-04T01:19:36;10.10;99.90
40253;DHT22;25972;51.854;4.534;2024-02-04T01:22:01;10.10;99.90
40253;DHT22;25972;51.854;4.534;2024-02-04T01:24:27;10.10;99.90
40253;DHT22;25972;51.854;4.534;2024-02-04T01:26:53;10.10;99.90
40253;DHT22;25972;51.854;4.534;2024-02-04T01:29:19;10.10;99.90
40253;DHT22;25972;51.854;4.534;2024-02-04T01:31:44;10.10;99.90
40253;DHT22;25972;51.854;4.534;2024-02-04T01:34:10;10.00;99.90
40253;DHT22;25972;51.854;4.534;2024-02-04T01:36:36;10.10;99.90
40253;DHT22;25972;51.854;4.534;2024-02-04T01:39:02;10.00;99.90
40253;DHT22;25972;51.854;4.534;2024-02-04T01:41:27;10.00;99.90
40253;DHT22;25972;51.854;4.534;2024-02-04T01:43:54;10.00;99.90
40253;DHT22;25972;51.854;4.534;2024-02-04T01:46:21;10.00;99.90
40253;DHT22;25972;51.854;4.534;2024-02-04T01:48:49;10.00;99.90
40253;DHT22;25972;51.854;4.534;2024-02-04T01:51:17;10.00;99.90
40253;DHT22;25972;51.854;4.534;2024-02-04T01:53:45;10.00;99.90
40253;DHT22;25972;51.854;4.534;2024-02-04T01:56:12;10.00;99.90
40253;DHT22;25972;51.854;4.534;2024-02-04T01:58:42;9.90;99.90
40253;DHT22;25972;51.854;4.534;2024-02-04T02:01:09;9.90;99.90
40253;DHT22;25972;51.854;4.534;2024-02-04T02:03:35;9.90;99.90
40253;DHT22;25972;51.854;4.534;2024-02-04T02:06:05;9.90;99.90
40253;DHT22;25972;51.854;4.534;2024-02-04T02:08:32;9.90;99.90
40253;DHT22;25972;51.854;4.534;2024-02-04T02:11:15;9.90;99.90
40253;DHT22;25972;51.854;4.534;2024-02-04T02:13:47;9.90;99.90
40253;DHT22;25972;51.854;4.534;2024-02-04T02:16:17;9.90;99.90
40253;DHT22;25972;51.854;4.534;2024-02-04T02:18:54;9.90;99.90
40253;DHT22;25972;51.854;4.534;2024-02-04T02:21:47;9.90;99.90
40253;DHT22;25972;51.854;4.534;2024-02-04T02:26:49;9.90;99.90
40253;DHT22;25972;51.854;4.534;2024-02-04T02:29:14;9.80;99.90
40253;DHT22;25972;51.854;4.534;2024-02-04T02:31:41;9.80;99.90
40253;DHT22;25972;51.854;4.534;2024-02-04T02:34:08;9.80;99.90
40253;DHT22;25972;51.854;4.534;2024-02-04T02:36:40;9.90;99.90
40253;DHT22;25972;51.854;4.534;2024-02-04T02:39:37;9.90;99.90
40253;DHT22;25972;51.854;4.534;2024-02-04T02:42:05;9.90;99.90
40253;DHT22;25972;51.854;4.534;2024-02-04T02:44:32;9.80;99.90
40253;DHT22;25972;51.854;4.534;2024-02-04T02:47:00;9.80;99.90
40253;DHT22;25972;51.854;4.534;2024-02-04T02:49:28;9.80;99.90
40253;DHT22;25972;51.854;4.534;2024-02-04T02:51:54;9.80;99.90
40253;DHT22;25972;51.854;4.534;2024-02-04T02:54:19;9.80;99.90
40253;DHT22;25972;51.854;4.534;2024-02-04T02:56:45;9.80;99.90
40253;DHT22;25972;51.854;4.534;2024-02-04T02:59:11;9.80;99.90
40253;DHT22;25972;51.854;4.534;2024-02-04T03:01:40;9.80;99.90
40253;DHT22;25972;51.854;4.534;2024-02-04T03:04:06;9.70;99.90
40253;DHT22;25972;51.854;4.534;2024-02-04T03:06:32;9.70;99.90
40253;DHT22;25972;51.854;4.534;2024-02-04T03:08:58;9.80;99.90
40253;DHT22;25972;51.854;4.534;2024-02-04T03:11:24;9.80;99.90
40253;DHT22;25972;51.854;4.534;2024-02-04T03:13:50;9.70;99.90
40253;DHT22;25972;51.854;4.534;2024-02-04T03:16:16;9.70;99.90
40253;DHT22;25972;51.854;4.534;2024-02-04T03:18:42;9.70;99.90
40253;DHT22;25972;51.854;4.534;2024-02-04T03:21:15;9.60;99.90
40253;DHT22;25972;51.854;4.534;2024-02-04T03:23:42;9.70;99.90
40253;DHT22;25972;51.854;4.534;2024-02-04T03:26:09;9.60;99.90
40253;DHT22;25972;51.854;4.534;2024-02-04T03:28:35;9.60;99.90
40253;DHT22;25972;51.854;4.534;2024-02-04T03:31:01;9.60;99.90
40253;DHT22;25972;51.854;4.534;2024-02-04T03:33:27;9.70;99.90
40253;DHT22;25972;51.854;4.534;2024-02-04T03:35:52;9.70;99.90
40253;DHT22;25972;51.854;4.534;2024-02-04T03:38:18;9.70;99.90
40253;DHT22;25972;51.854;4.534;2024-02-04T03:40:47;9.70;99.90
40253;DHT22;25972;51.854;4.534;2024-02-04T03:43:14;9.70;99.90
40253;DHT22;25972;51.854;4.534;2024-02-04T03:45:40;9.70;99.90
40253;DHT22;25972;51.854;4.534;2024-02-04T03:48:06;9.70;99.90
40253;DHT22;25972;51.854;4.534;2024-02-04T03:50:36;9.70;99.90
40253;DHT22;25972;51.854;4.534;2024-02-04T03:53:01;9.70;99.90
40253;DHT22;25972;51.854;4.534;2024-02-04T03:55:27;9.80;99.90
40253;DHT22;25972;51.854;4.534;2024-02-04T03:57:55;9.80;99.90
40253;DHT22;25972;51.854;4.534;2024-02-04T04:00:22;9.80;99.90
40253;DHT22;25972;51.854;4.534;2024-02-04T04:02:48;9.80;99.90
40253;DHT22;25972;51.854;4.534;2024-02-04T04:05:13;9.80;99.90
40253;DHT22;25972;51.854;4.534;2024-02-04T04:07:40;9.80;99.90
40253;DHT22;25972;51.854;4.534;2024-02-04T04:10:06;9.80;99.90
40253;DHT22;25972;51.854;4.534;2024-02-04T04:12:32;9.90;99.90
40253;DHT22;25972;51.854;4.534;2024-02-04T04:14:57;9.90;99.90
40253;DHT22;25972;51.854;4.534;2024-02-04T04:17:23;9.90;99.90
40253;DHT22;25972;51.854;4.534;2024-02-04T04:19:49;9.80;99.90
40253;DHT22;25972;51.854;4.534;2024-02-04T04:22:15;9.80;99.90
40253;DHT22;25972;51.854;4.534;2024-02-04T04:24:41;9.90;99.90
40253;DHT22;25972;51.854;4.534;2024-02-04T04:27:07;9.80;99.90
40253;DHT22;25972;51.854;4.534;2024-02-04T04:29:35;9.90;99.90
40253;DHT22;25972;51.854;4.534;2024-02-04T04:32:01;9.80;99.90
40253;DHT22;25972;51.854;4.534;2024-02-04T04:34:27;9.80;99.90
40253;DHT22;25972;51.854;4.534;2024-02-04T04:36:52;9.90;99.90
40253;DHT22;25972;51.854;4.534;2024-02-04T04:39:20;9.80;99.90
40253;DHT22;25972;51.854;4.534;2024-02-04T04:41:46;9.80;99.90
40253;DHT22;25972;51.854;4.534;2024-02-04T04:44:11;9.90;99.90
40253;DHT22;25972;51.854;4.534;2024-02-04T04:46:38;9.90;99.90
40253;DHT22;25972;51.854;4.534;2024-02-04T04:49:07;9.80;99.90
40253;DHT22;25972;51.854;4.534;2024-02-04T04:51:33;10.00;99.90
40253;DHT22;25972;51.854;4.534;2024-02-04T04:53:59;9.90;99.90
40253;DHT22;25972;51.854;4.534;2024-02-04T04:56:25;9.90;99.90
40253;DHT22;25972;51.854;4.534;2024-02-04T04:58:51;9.90;99.90
40253;DHT22;25972;51.854;4.534;2024-02-04T05:01:17;9.90;99.90
40253;DHT22;25972;51.854;4.534;2024-02-04T05:03:43;9.80;99.90
40253;DHT22;25972;51.854;4.534;2024-02-04T05:06:09;9.80;99.90
40253;DHT22;25972;51.854;4.534;2024-02-04T05:08:37;9.80;99.90
40253;DHT22;25972;51.854;4.534;2024-02-04T05:11:03;9.80;99.90
40253;DHT22;25972;51.854;4.534;2024-02-04T05:13:28;9.80;99.90
40253;DHT22;25972;51.854;4.534;2024-02-04T05:15:54;9.80;99.90
40253;DHT22;25972;51.854;4.534;2024-02-04T05:18:20;9.80;99.90
40253;DHT22;25972;51.854;4.534;2024-02-04T05:20:46;9.80;99.90
40253;DHT22;25972;51.854;4.534;2024-02-04T05:23:11;9.80;99.90
40253;DHT22;25972;51.854;4.534;2024-02-04T05:25:37;9.80;99.90
40253;DHT22;25972;51.854;4.534;2024-02-04T05:28:06;9.80;99.90
40253;DHT22;25972;51.854;4.534;2024-02-04T05:30:32;9.80;99.90
40253;DHT22;25972;51.854;4.534;2024-02-04T05:32:58;9.80;99.90
40253;DHT22;25972;51.854;4.534;2024-02-04T05:35:24;9.80;99.90
40253;DHT22;25972;51.854;4.534;2024-02-04T05:37:49;9.80;99.90
40253;DHT22;25972;51.854;4.534;2024-02-04T05:40:15;9.80;99.90
40253;DHT22;25972;51.854;4.534;2024-02-04T05:42:44;9.80;99.90
40253;DHT22;25972;51.854;4.534;2024-02-04T05:45:10;9.80;99.90
40253;DHT22;25972;51.854;4.534;2024-02-04T05:47:36;9.70;99.90
40253;DHT22;25972;51.854;4.534;2024-02-04T05:50:02;9.80;99.90
40253;DHT22;25972;51.854;4.534;2024-02-04T05:52:28;9.70;99.90
40253;DHT22;25972;51.854;4.534;2024-02-04T05:54:54;9.80;99.90
40253;DHT22;25972;51.854;4.534;2024-02-04T05:57:19;9.80;99.90
40253;DHT22;25972;51.854;4.534;2024-02-04T05:59:46;9.70;99.90
40253;DHT22;25972;51.854;4.534;2024-02-04T06:02:14;9.70;99.90
40253;DHT22;25972;51.854;4.534;2024-02-04T06:04:39;9.80;99.90
40253;DHT22;25972;51.854;4.534;2024-02-04T06:07:05;9.80;99.90
40253;DHT22;25972;51.854;4.534;2024-02-04T06:09:33;9.80;99.90
40253;DHT22;25972;51.854;4.534;2024-02-04T06:11:59;9.80;99.90
40253;DHT22;25972;51.854;4.534;2024-02-04T06:14:24;9.80;99.90
40253;DHT22;25972;51.854;4.534;2024-02-04T06:16:50;9.80;99.90
40253;DHT22;25972;51.854;4.534;2024-02-04T06:19:16;9.80;99.90
40253;DHT22;25972;51.854;4.534;2024-02-04T06:21:43;9.80;99.90
40253;DHT22;25972;51.854;4.534;2024-02-04T06:24:08;9.80;99.90
40253;DHT22;25972;51.854;4.534;2024-02-04T06:26:38;9.80;99.90
40253;DHT22;25972;51.854;4.534;2024-02-04T06:29:04;9.80;99.90
40253;DHT22;25972;51.854;4.534;2024-02-04T06:31:30;9.80;99.90
40253;DHT22;25972;51.854;4.534;2024-02-04T06:33:56;9.80;99.90
40253;DHT22;25972;51.854;4.534;2024-02-04T06:36:21;9.80;99.90
40253;DHT22;25972;51.854;4.534;2024-02-04T06:38:47;9.80;99.90
40253;DHT22;25972;51.854;4.534;2024-02-04T06:41:13;9.80;99.90
40253;DHT22;25972;51.854;4.534;2024-02-04T06:43:39;9.80;99.90
40253;DHT22;25972;51.854;4.534;2024-02-04T06:46:04;9.80;99.90
40253;DHT22;25972;51.854;4.534;2024-02-04T06:48:30;9.80;99.90
40253;DHT22;25972;51.854;4.534;2024-02-04T06:50:56;9.80;99.90
40253;DHT22;25972;51.854;4.534;2024-02-04T06:53:22;9.80;99.90
40253;DHT22;25972;51.854;4.534;2024-02-04T06:55:47;9.80;99.90
40253;DHT22;25972;51.854;4.534;2024-02-04T06:58:13;9.80;99.90
40253;DHT22;25972;51.854;4.534;2024-02-04T07:00:39;9.80;99.90
40253;DHT22;25972;51.854;4.534;2024-02-04T07:03:04;9.80;99.90
40253;DHT22;25972;51.854;4.534;2024-02-04T07:05:30;9.90;99.90
40253;DHT22;25972;51.854;4.534;2024-02-04T07:07:57;9.90;99.90
40253;DHT22;25972;51.854;4.534;2024-02-04T07:10:23;9.90;99.90
40253;DHT22;25972;51.854;4.534;2024-02-04T07:12:48;9.90;99.90
40253;DHT22;25972;51.854;4.534;2024-02-04T07:15:14;9.90;99.90
40253;DHT22;25972;51.854;4.534;2024-02-04T07:17:40;9.80;99.90
40253;DHT22;25972;51.854;4.534;2024-02-04T07:20:06;9.90;99.90
40253;DHT22;25972;51.854;4.534;2024-02-04T07:22:32;9.90;99.90
40253;DHT22;25972;51.854;4.534;2024-02-04T07:24:58;9.90;99.90
40253;DHT22;25972;51.854;4.534;2024-02-04T07:27:24;9.90;99.90
40253;DHT22;25972;51.854;4.534;2024-02-04T07:29:49;9.90;99.90
40253;DHT22;25972;51.854;4.534;2024-02-04T07:32:15;9.90;99.90
40253;DHT22;25972;51.854;4.534;2024-02-04T07:34:41;9.90;99.90
40253;DHT22;25972;51.854;4.534;2024-02-04T07:37:07;9.90;99.90
40253;DHT22;25972;51.854;4.534;2024-02-04T07:39:32;10.00;99.90
40253;DHT22;25972;51.854;4.534;2024-02-04T07:41:58;9.90;99.90
40253;DHT22;25972;51.854;4.534;2024-02-04T07:44:28;10.00;99.90
40253;DHT22;25972;51.854;4.534;2024-02-04T07:46:53;10.00;99.90
40253;DHT22;25972;51.854;4.534;2024-02-04T07:49:19;10.00;99.90
40253;DHT22;25972;51.854;4.534;2024-02-04T07:51:45;10.00;99.90
40253;DHT22;25972;51.854;4.534;2024-02-04T07:54:11;10.00;99.90
40253;DHT22;25972;51.854;4.534;2024-02-04T07:56:36;9.90;99.90
40253;DHT22;25972;51.854;4.534;2024-02-04T07:59:02;10.00;99.90
40253;DHT22;25972;51.854;4.534;2024-02-04T08:01:29;10.00;99.90
40253;DHT22;25972;51.854;4.534;2024-02-04T08:03:57;10.00;99.90
40253;DHT22;25972;51.854;4.534;2024-02-04T08:06:23;10.00;99.90
40253;DHT22;25972;51.854;4.534;2024-02-04T08:08:48;9.90;99.90
40253;DHT22;25972;51.854;4.534;2024-02-04T08:11:18;9.90;99.90
40253;DHT22;25972;51.854;4.534;2024-02-04T08:13:43;9.90;99.90
40253;DHT22;25972;51.854;4.534;2024-02-04T08:16:10;9.90;99.90
40253;DHT22;25972;51.854;4.534;2024-02-04T08:18:38;9.90;99.90
40253;DHT22;25972;51.854;4.534;2024-02-04T08:21:04;9.90;99.90
40253;DHT22;25972;51.854;4.534;2024-02-04T08:23:29;9.90;99.90
40253;DHT22;25972;51.854;4.534;2024-02-04T08:25:55;9.90;99.90
40253;DHT22;25972;51.854;4.534;2024-02-04T08:28:22;9.90;99.90
40253;DHT22;25972;51.854;4.534;2024-02-04T08:30:49;9.90;99.90
40253;DHT22;25972;51.854;4.534;2024-02-04T08:33:14;9.90;99.90
40253;DHT22;25972;51.854;4.534;2024-02-04T08:35:40;9.90;99.90
40253;DHT22;25972;51.854;4.534;2024-02-04T08:38:06;9.90;99.90
40253;DHT22;25972;51.854;4.534;2024-02-04T08:40:31;9.90;99.90
40253;DHT22;25972;51.854;4.534;2024-02-04T08:42:57;9.90;99.90
40253;DHT22;25972;51.854;4.534;2024-02-04T08:45:23;10.00;99.90
40253;DHT22;25972;51.854;4.534;2024-02-04T08:47:50;10.00;99.90
40253;DHT22;25972;51.854;4.534;2024-02-04T08:50:15;10.00;99.90
40253;DHT22;25972;51.854;4.534;2024-02-04T08:52:41;10.00;99.90
40253;DHT22;25972;51.854;4.534;2024-02-04T08:55:07;10.00;99.90
40253;DHT22;25972;51.854;4.534;2024-02-04T08:57:33;10.00;99.90
40253;DHT22;25972;51.854;4.534;2024-02-04T08:59:58;10.00;99.90
40253;DHT22;25972;51.854;4.534;2024-02-04T09:02:24;10.00;99.90
40253;DHT22;25972;51.854;4.534;2024-02-04T09:04:50;10.10;99.90
40253;DHT22;25972;51.854;4.534;2024-02-04T09:07:15;10.10;99.90
40253;DHT22;25972;51.854;4.534;2024-02-04T09:09:41;10.10;99.90
40253;DHT22;25972;51.854;4.534;2024-02-04T09:12:09;10.10;99.90
40253;DHT22;25972;51.854;4.534;2024-02-04T09:14:35;10.00;99.90
40253;DHT22;25972;51.854;4.534;2024-02-04T09:17:04;10.00;99.90
40253;DHT22;25972;51.854;4.534;2024-02-04T09:19:30;10.00;99.90
40253;DHT22;25972;51.854;4.534;2024-02-04T09:21:59;10.00;99.90
40253;DHT22;25972;51.854;4.534;2024-02-04T09:24:27;10.00;99.90
40253;DHT22;25972;51.854;4.534;2024-02-04T09:26:53;10.00;99.90
40253;DHT22;25972;51.854;4.534;2024-02-04T09:29:20;9.90;99.90
40253;DHT22;25972;51.854;4.534;2024-02-04T09:31:45;10.00;99.90
40253;DHT22;25972;51.854;4.534;2024-02-04T09:34:11;9.90;99.90
40253;DHT22;25972;51.854;4.534;2024-02-04T09:36:37;9.90;99.90
40253;DHT22;25972;51.854;4.534;2024-02-04T09:39:03;10.00;99.90
40253;DHT22;25972;51.854;4.534;2024-02-04T09:41:29;10.10;99.90
40253;DHT22;25972;51.854;4.534;2024-02-04T09:43:55;10.00;99.90
40253;DHT22;25972;51.854;4.534;2024-02-04T09:46:22;10.00;99.90
40253;DHT22;25972;51.854;4.534;2024-02-04T09:48:49;10.00;99.90
40253;DHT22;25972;51.854;4.534;2024-02-04T09:51:17;10.00;99.90
40253;DHT22;25972;51.854;4.534;2024-02-04T09:53:44;10.00;99.90
40253;DHT22;25972;51.854;4.534;2024-02-04T09:56:11;10.00;99.90
40253;DHT22;25972;51.854;4.534;2024-02-04T09:58:38;10.00;99.90
40253;DHT22;25972;51.854;4.534;2024-02-04T10:01:07;10.00;99.90
40253;DHT22;25972;51.854;4.534;2024-02-04T10:03:35;10.10;99.90
40253;DHT22;25972;51.854;4.534;2024-02-04T10:06:01;10.10;99.90
40253;DHT22;25972;51.854;4.534;2024-02-04T10:08:26;10.10;99.90
40253;DHT22;25972;51.854;4.534;2024-02-04T10:10:52;10.10;99.90
40253;DHT22;25972;51.854;4.534;2024-02-04T10:13:20;10.10;99.90
40253;DHT22;25972;51.854;4.534;2024-02-04T10:15:48;10.10;99.90
40253;DHT22;25972;51.854;4.534;2024-02-04T10:18:16;10.20;99.90
40253;DHT22;25972;51.854;4.534;2024-02-04T10:20:43;10.20;99.90
40253;DHT22;25972;51.854;4.534;2024-02-04T10:23:08;10.20;99.90
40253;DHT22;25972;51.854;4.534;2024-02-04T10:25:34;10.20;99.90
40253;DHT22;25972;51.854;4.534;2024-02-04T10:28:00;10.30;99.90
40253;DHT22;25972;51.854;4.534;2024-02-04T10:30:26;10.20;99.90
40253;DHT22;25972;51.854;4.534;2024-02-04T10:32:52;10.30;99.90
40253;DHT22;25972;51.854;4.534;2024-02-04T10:35:20;10.30;99.90
40253;DHT22;25972;51.854;4.534;2024-02-04T10:37:48;10.30;99.90
40253;DHT22;25972;51.854;4.534;2024-02-04T10:40:14;10.30;99.90
40253;DHT22;25972;51.854;4.534;2024-02-04T10:42:42;10.30;99.90
40253;DHT22;25972;51.854;4.534;2024-02-04T10:45:09;10.30;99.90
40253;DHT22;25972;51.854;4.534;2024-02-04T10:47:38;10.30;99.90
40253;DHT22;25972;51.854;4.534;2024-02-04T10:50:04;10.20;99.90
40253;DHT22;25972;51.854;4.534;2024-02-04T10:52:38;10.30;99.90
40253;DHT22;25972;51.854;4.534;2024-02-04T10:55:09;10.20;99.90
40253;DHT22;25972;51.854;4.534;2024-02-04T10:57:36;10.20;99.90
40253;DHT22;25972;51.854;4.534;2024-02-04T11:00:03;10.20;99.90
40253;DHT22;25972;51.854;4.534;2024-02-04T11:02:35;10.20;99.90
40253;DHT22;25972;51.854;4.534;2024-02-04T11:05:03;10.20;99.90
40253;DHT22;25972;51.854;4.534;2024-02-04T11:07:32;10.20;99.90
40253;DHT22;25972;51.854;4.534;2024-02-04T11:10:03;10.20;99.90
40253;DHT22;25972;51.854;4.534;2024-02-04T11:12:30;10.20;99.90
40253;DHT22;25972;51.854;4.534;2024-02-04T11:15:00;10.20;99.90
40253;DHT22;25972;51.854;4.534;2024-02-04T11:20:22;10.20;99.90
40253;DHT22;25972;51.854;4.534;2024-02-04T11:25:52;10.30;99.90
40253;DHT22;25972;51.854;4.534;2024-02-04T11:28:21;10.20;99.90
40253;DHT22;25972;51.854;4.534;2024-02-04T11:30:47;10.30;99.90
40253;DHT22;25972;51.854;4.534;2024-02-04T11:33:18;10.20;99.90
40253;DHT22;25972;51.854;4.534;2024-02-04T11:35:44;10.30;99.90
40253;DHT22;25972;51.854;4.534;2024-02-04T11:38:10;10.30;99.90
40253;DHT22;25972;51.854;4.534;2024-02-04T11:40:41;10.30;99.90
40253;DHT22;25972;51.854;4.534;2024-02-04T11:43:11;10.30;99.90
40253;DHT22;25972;51.854;4.534;2024-02-04T11:45:42;10.30;99.90
40253;DHT22;25972;51.854;4.534;2024-02-04T11:48:11;10.30;99.90
40253;DHT22;25972;51.854;4.534;2024-02-04T11:50:37;10.40;99.90
40253;DHT22;25972;51.854;4.534;2024-02-04T11:53:10;10.40;99.90
40253;DHT22;25972;51.854;4.534;2024-02-04T11:55:38;10.40;99.90
40253;DHT22;25972;51.854;4.534;2024-02-04T11:58:09;10.50;99.90
40253;DHT22;25972;51.854;4.534;2024-02-04T12:00:36;10.50;99.90
40253;DHT22;25972;51.854;4.534;2024-02-04T12:03:06;10.50;99.90
40253;DHT22;25972;51.854;4.534;2024-02-04T12:05:33;10.50;99.90
40253;DHT22;25972;51.854;4.534;2024-02-04T12:08:05;10.60;99.90
40253;DHT22;25972;51.854;4.534;2024-02-04T12:10:33;10.60;99.90
40253;DHT22;25972;51.854;4.534;2024-02-04T12:13:02;10.60;99.90
40253;DHT22;25972;51.854;4.534;2024-02-04T12:15:28;10.60;99.90
40253;DHT22;25972;51.854;4.534;2024-02-04T12:17:56;10.60;99.90
40253;DHT22;25972;51.854;4.534;2024-02-04T12:20:30;10.60;99.90
40253;DHT22;25972;51.854;4.534;2024-02-04T12:22:56;10.60;99.90
40253;DHT22;25972;51.854;4.534;2024-02-04T12:25:22;10.70;99.90
40253;DHT22;25972;51.854;4.534;2024-02-04T12:27:52;10.70;99.90
40253;DHT22;25972;51.854;4.534;2024-02-04T12:30:18;10.70;99.90
40253;DHT22;25972;51.854;4.534;2024-02-04T12:32:43;10.80;99.90
40253;DHT22;25972;51.854;4.534;2024-02-04T12:35:15;10.80;99.90
40253;DHT22;25972;51.854;4.534;2024-02-04T12:37:53;10.90;99.90
40253;DHT22;25972;51.854;4.534;2024-02-04T12:40:26;10.90;99.90
40253;DHT22;25972;51.854;4.534;2024-02-04T12:42:59;10.90;99.90
40253;DHT22;25972;51.854;4.534;2024-02-04T12:45:26;11.00;99.90
40253;DHT22;25972;51.854;4.534;2024-02-04T12:47:52;11.10;99.90
40253;DHT22;25972;51.854;4.534;2024-02-04T12:50:19;11.10;99.90
40253;DHT22;25972;51.854;4.534;2024-02-04T12:52:49;11.10;99.90
40253;DHT22;25972;51.854;4.534;2024-02-04T12:55:22;11.10;99.90
40253;DHT22;25972;51.854;4.534;2024-02-04T12:57:49;11.10;99.90
40253;DHT22;25972;51.854;4.534;2024-02-04T13:00:18;11.10;99.90
40253;DHT22;25972;51.854;4.534;2024-02-04T13:02:43;11.00;99.90
40253;DHT22;25972;51.854;4.534;2024-02-04T13:05:10;11.00;99.90
40253;DHT22;25972;51.854;4.534;2024-02-04T13:07:36;11.00;99.90
40253;DHT22;25972;51.854;4.534;2024-02-04T13:10:02;11.00;99.90
40253;DHT22;25972;51.854;4.534;2024-02-04T13:12:28;10.90;99.90
40253;DHT22;25972;51.854;4.534;2024-02-04T13:14:54;10.90;99.90
40253;DHT22;25972;51.854;4.534;2024-02-04T13:17:20;10.90;99.90
40253;DHT22;25972;51.854;4.534;2024-02-04T13:19:46;10.90;99.90
40253;DHT22;25972;51.854;4.534;2024-02-04T13:22:12;10.90;99.90
40253;DHT22;25972;51.854;4.534;2024-02-04T13:24:39;10.90;99.90
40253;DHT22;25972;51.854;4.534;2024-02-04T13:27:05;10.90;99.90
40253;DHT22;25972;51.854;4.534;2024-02-04T13:29:37;11.00;99.90
40253;DHT22;25972;51.854;4.534;2024-02-04T13:32:03;11.00;99.90
40253;DHT22;25972;51.854;4.534;2024-02-04T13:34:29;11.00;99.90
40253;DHT22;25972;51.854;4.534;2024-02-04T13:36:54;11.10;99.90
40253;DHT22;25972;51.854;4.534;2024-02-04T13:39:20;11.00;99.90
40253;DHT22;25972;51.854;4.534;2024-02-04T13:41:47;11.00;99.90
40253;DHT22;25972;51.854;4.534;2024-02-04T13:44:13;11.00;99.90
40253;DHT22;25972;51.854;4.534;2024-02-04T13:46:39;11.00;99.90
40253;DHT22;25972;51.854;4.534;2024-02-04T13:49:07;11.00;99.90
40253;DHT22;25972;51.854;4.534;2024-02-04T13:51:33;11.00;99.90
40253;DHT22;25972;51.854;4.534;2024-02-04T13:54:00;11.00;99.90
40253;DHT22;25972;51.854;4.534;2024-02-04T13:56:25;11.00;99.90
40253;DHT22;25972;51.854;4.534;2024-02-04T13:58:52;11.00;99.90
40253;DHT22;25972;51.854;4.534;2024-02-04T14:01:18;11.00;99.90
40253;DHT22;25972;51.854;4.534;2024-02-04T14:03:46;11.00;99.90
40253;DHT22;25972;51.854;4.534;2024-02-04T14:06:12;11.00;99.90
40253;DHT22;25972;51.854;4.534;2024-02-04T14:08:38;11.00;99.90
40253;DHT22;25972;51.854;4.534;2024-02-04T14:11:04;11.00;99.90
40253;DHT22;25972;51.854;4.534;2024-02-04T14:13:29;11.10;99.90
40253;DHT22;25972;51.854;4.534;2024-02-04T14:15:55;11.10;99.90
40253;DHT22;25972;51.854;4.534;2024-02-04T14:18:21;11.10;99.90
40253;DHT22;25972;51.854;4.534;2024-02-04T14:20:47;11.10;99.90
40253;DHT22;25972;51.854;4.534;2024-02-04T14:23:12;11.10;99.90
40253;DHT22;25972;51.854;4.534;2024-02-04T14:25:38;11.10;99.90
40253;DHT22;25972;51.854;4.534;2024-02-04T14:28:05;11.10;99.90
40253;DHT22;25972;51.854;4.534;2024-02-04T14:30:31;11.10;99.90
40253;DHT22;25972;51.854;4.534;2024-02-04T14:32:57;11.10;99.90
40253;DHT22;25972;51.854;4.534;2024-02-04T14:35:24;11.00;99.90
40253;DHT22;25972;51.854;4.534;2024-02-04T14:37:49;11.10;99.90
40253;DHT22;25972;51.854;4.534;2024-02-04T14:40:15;11.10;99.90
40253;DHT22;25972;51.854;4.534;2024-02-04T14:42:41;11.10;99.90
40253;DHT22;25972;51.854;4.534;2024-02-04T14:45:07;11.20;99.90
40253;DHT22;25972;51.854;4.534;2024-02-04T14:47:33;11.20;99.90
40253;DHT22;25972;51.854;4.534;2024-02-04T14:49:59;11.20;99.90
40253;DHT22;25972;51.854;4.534;2024-02-04T14:52:24;11.20;99.90
40253;DHT22;25972;51.854;4.534;2024-02-04T14:54:50;11.30;99.90
40253;DHT22;25972;51.854;4.534;2024-02-04T14:57:16;11.30;99.90
40253;DHT22;25972;51.854;4.534;2024-02-04T14:59:42;11.30;99.90
40253;DHT22;25972;51.854;4.534;2024-02-04T15:02:08;11.30;99.90
40253;DHT22;25972;51.854;4.534;2024-02-04T15:04:34;11.30;99.90
40253;DHT22;25972;51.854;4.534;2024-02-04T15:07:00;11.30;99.90
40253;DHT22;25972;51.854;4.534;2024-02-04T15:09:31;11.30;99.90
40253;DHT22;25972;51.854;4.534;2024-02-04T15:11:57;11.20;99.90
40253;DHT22;25972;51.854;4.534;2024-02-04T15:14:27;11.20;99.90
40253;DHT22;25972;51.854;4.534;2024-02-04T15:16:54;11.20;99.90
40253;DHT22;25972;51.854;4.534;2024-02-04T15:19:22;11.10;99.90
40253;DHT22;25972;51.854;4.534;2024-02-04T15:21:50;11.10;99.90
40253;DHT22;25972;51.854;4.534;2024-02-04T15:24:17;11.10;99.90
40253;DHT22;25972;51.854;4.534;2024-02-04T15:26:44;11.10;99.90
40253;DHT22;25972;51.854;4.534;2024-02-04T15:29:13;11.10;99.90
40253;DHT22;25972;51.854;4.534;2024-02-04T15:31:41;11.10;99.90
40253;DHT22;25972;51.854;4.534;2024-02-04T15:34:07;11.00;99.90
40253;DHT22;25972;51.854;4.534;2024-02-04T15:36:34;11.00;99.90
40253;DHT22;25972;51.854;4.534;2024-02-04T15:39:01;11.00;99.90
40253;DHT22;25972;51.854;4.534;2024-02-04T15:41:27;10.90;99.90
40253;DHT22;25972;51.854;4.534;2024-02-04T15:43:54;10.90;99.90